Time;durP1;ratioP1;P1;durP2;ratioP2;P2;SDS_P1;SDS_P2;PMS_P1;PMS_P2;Temp;Humidity;BMP_temperature;BMP_pressure;BME280_temperature;BME280_humidity;BME280_pressure;Samples;Min_cycle;Max_cycle;Signal;HPM_P1;HPM_P2
2022/04/21 00:00:56;;;;;;;;;;;19.00;41.00;;;;;;4948814;28;19995;-74
2022/04/21 00:03:22;;;;;;;;;;;19.00;41.10;;;;;;4949310;28;19922;-76
2022/04/21 00:05:47;;;;;;;;;;;19.00;41.20;;;;;;4949112;29;20271;-76
2022/04/21 00:08:16;;;;;;;;;;;19.00;41.30;;;;;;4949025;28;20009;-75
2022/04/21 00:10:42;;;;;;;;;;;19.00;41.30;;;;;;4939464;28;19914;-76
2022/04/21 00:13:08;;;;;;;;;;;19.00;41.40;;;;;;4951237;28;20306;-76
2022/04/21 00:15:34;;;;;;;;;;;19.00;41.30;;;;;;4953390;28;19918;-76
2022/04/21 00:18:00;;;;;;;;;;;19.00;41.20;;;;;;4947865;29;19994;-75
2022/04/21 00:20:25;;;;;;;;;;;19.00;41.50;;;;;;4944186;29;19926;-74
2022/04/21 00:25:35;;;;;;;;;;;19.00;41.70;;;;;;4953720;28;19921;-75
2022/04/21 00:28:00;;;;;;;;;;;19.00;41.60;;;;;;4953394;29;19910;-75
2022/04/21 00:30:26;;;;;;;;;;;19.10;41.80;;;;;;4951029;28;20009;-75
2022/04/21 00:32:52;;;;;;;;;;;19.10;41.70;;;;;;4951603;29;20024;-74
2022/04/21 00:35:18;;;;;;;;;;;19.10;41.90;;;;;;4943287;28;20271;-76
2022/04/21 00:37:45;;;;;;;;;;;19.10;41.40;;;;;;4944769;28;20010;-74
2022/04/21 00:40:11;;;;;;;;;;;18.90;41.60;;;;;;4950172;28;19917;-76
2022/04/21 00:42:36;;;;;;;;;;;19.00;42.10;;;;;;4952103;28;20032;-74
2022/04/21 00:45:02;;;;;;;;;;;18.90;42.20;;;;;;4951478;28;20026;-74
2022/04/21 00:47:29;;;;;;;;;;;18.90;42.20;;;;;;4948906;29;20306;-75
2022/04/21 00:49:54;;;;;;;;;;;18.90;42.20;;;;;;4943503;29;20382;-75
2022/04/21 00:52:21;;;;;;;;;;;18.90;42.40;;;;;;4951550;28;19929;-74
2022/04/21 00:54:47;;;;;;;;;;;19.00;42.00;;;;;;4946118;28;20440;-75
2022/04/21 00:57:12;;;;;;;;;;;19.00;42.10;;;;;;4945794;29;19918;-75
2022/04/21 00:59:38;;;;;;;;;;;19.00;41.80;;;;;;4941962;29;20009;-75
2022/04/21 01:04:48;;;;;;;;;;;19.00;42.10;;;;;;4939832;29;19926;-75
2022/04/21 01:07:13;;;;;;;;;;;19.00;42.20;;;;;;4941824;29;19975;-74
2022/04/21 01:09:39;;;;;;;;;;;19.00;42.30;;;;;;4952423;28;19915;-75
2022/04/21 01:12:08;;;;;;;;;;;19.00;42.20;;;;;;4976918;28;19911;-75
2022/04/21 01:14:37;;;;;;;;;;;18.90;42.50;;;;;;4950669;29;19979;-76
2022/04/21 01:17:04;;;;;;;;;;;18.90;42.40;;;;;;4941035;29;20004;-74
2022/04/21 01:19:29;;;;;;;;;;;19.00;42.30;;;;;;4947655;29;19925;-75
2022/04/21 01:21:55;;;;;;;;;;;19.00;42.40;;;;;;4958611;28;19927;-74
2022/04/21 01:24:20;;;;;;;;;;;19.10;42.20;;;;;;4945687;29;19922;-76
2022/04/21 01:26:46;;;;;;;;;;;19.10;42.00;;;;;;4951331;28;20338;-75
2022/04/21 01:29:12;;;;;;;;;;;19.10;42.30;;;;;;4943379;29;19919;-76
2022/04/21 01:31:38;;;;;;;;;;;19.10;42.30;;;;;;4947838;29;20370;-75
2022/04/21 01:34:03;;;;;;;;;;;19.10;42.40;;;;;;4943153;29;19977;-73
2022/04/21 01:36:29;;;;;;;;;;;19.00;42.30;;;;;;4947362;28;19915;-74
2022/04/21 01:41:38;;;;;;;;;;;19.10;42.80;;;;;;4942662;29;19921;-76
2022/04/21 01:44:04;;;;;;;;;;;19.00;42.90;;;;;;4950099;28;19918;-74
2022/04/21 01:46:29;;;;;;;;;;;19.00;43.30;;;;;;4948952;29;19937;-76
2022/04/21 01:48:55;;;;;;;;;;;18.90;43.10;;;;;;4941275;29;19921;-76
2022/04/21 01:51:20;;;;;;;;;;;18.80;43.50;;;;;;4950672;29;19919;-76
2022/04/21 01:53:46;;;;;;;;;;;18.70;43.50;;;;;;4948362;29;19965;-75
2022/04/21 01:56:11;;;;;;;;;;;18.70;44.00;;;;;;4942961;29;19922;-76
2022/04/21 01:58:37;;;;;;;;;;;18.70;43.50;;;;;;4948832;28;19918;-75
2022/04/21 02:01:02;;;;;;;;;;;18.70;43.90;;;;;;4965362;28;20005;-76
2022/04/21 02:03:30;;;;;;;;;;;18.70;44.30;;;;;;4950031;28;20005;-75
2022/04/21 02:05:56;;;;;;;;;;;18.70;44.60;;;;;;4942172;28;20293;-75
2022/04/21 02:08:21;;;;;;;;;;;18.80;44.80;;;;;;4940286;29;19914;-76
2022/04/21 02:10:46;;;;;;;;;;;19.00;44.30;;;;;;4948119;29;20205;-75
2022/04/21 02:13:13;;;;;;;;;;;18.90;43.90;;;;;;4984417;28;19921;-74
2022/04/21 02:15:38;;;;;;;;;;;18.70;44.30;;;;;;4947340;28;20055;-77
2022/04/21 02:18:04;;;;;;;;;;;18.60;44.90;;;;;;4938931;29;20370;-75
2022/04/21 02:20:30;;;;;;;;;;;18.70;46.10;;;;;;4939434;29;19918;-76
2022/04/21 02:22:56;;;;;;;;;;;18.80;44.80;;;;;;4947561;29;19918;-74
2022/04/21 02:25:21;;;;;;;;;;;18.80;45.10;;;;;;4949064;28;19968;-76
2022/04/21 02:27:47;;;;;;;;;;;18.80;45.10;;;;;;4941711;29;20017;-75
2022/04/21 02:30:14;;;;;;;;;;;18.70;45.10;;;;;;4944660;28;20013;-75
2022/04/21 02:32:40;;;;;;;;;;;18.70;45.30;;;;;;4938852;28;19926;-75
2022/04/21 02:35:06;;;;;;;;;;;18.70;45.50;;;;;;4944118;28;19919;-76
2022/04/21 02:37:36;;;;;;;;;;;18.70;45.20;;;;;;4949096;28;19957;-76
2022/04/21 02:40:02;;;;;;;;;;;18.70;45.10;;;;;;4942098;29;20392;-76
2022/04/21 02:42:27;;;;;;;;;;;18.70;45.20;;;;;;4945723;28;19917;-76
2022/04/21 02:44:53;;;;;;;;;;;18.60;44.90;;;;;;4938525;29;19941;-76
2022/04/21 02:47:18;;;;;;;;;;;18.70;45.50;;;;;;4945315;29;19919;-76
2022/04/21 02:49:46;;;;;;;;;;;18.60;45.40;;;;;;4945936;29;19972;-76
2022/04/21 02:52:11;;;;;;;;;;;18.50;45.10;;;;;;4937859;28;20405;-76
2022/04/21 02:57:21;;;;;;;;;;;18.60;45.10;;;;;;4950202;29;20014;-76
2022/04/21 02:59:54;;;;;;;;;;;18.60;44.90;;;;;;4973445;28;21589;-76
2022/04/21 03:02:20;;;;;;;;;;;18.60;44.50;;;;;;4945597;28;20351;-76
2022/04/21 03:04:46;;;;;;;;;;;18.80;53.20;;;;;;4934573;29;20013;-75
2022/04/21 03:07:13;;;;;;;;;;;18.30;52.70;;;;;;4940369;28;19941;-72
2022/04/21 03:09:38;;;;;;;;;;;18.40;52.60;;;;;;4937011;29;19953;-75
2022/04/21 03:12:04;;;;;;;;;;;18.60;52.90;;;;;;4943636;28;19949;-75
2022/04/21 03:14:30;;;;;;;;;;;18.60;52.90;;;;;;4940537;29;19918;-75
2022/04/21 03:16:56;;;;;;;;;;;19.00;54.30;;;;;;4948478;28;20017;-74
2022/04/21 03:19:22;;;;;;;;;;;18.80;54.60;;;;;;4948245;28;20013;-76
2022/04/21 03:24:32;;;;;;;;;;;18.50;56.40;;;;;;4939364;28;19922;-75
2022/04/21 03:26:58;;;;;;;;;;;18.50;59.50;;;;;;4937861;28;19918;-76
2022/04/21 03:29:23;;;;;;;;;;;18.30;44.70;;;;;;4937018;28;19919;-76
2022/04/21 03:31:49;;;;;;;;;;;18.40;45.30;;;;;;4941915;28;19918;-77
2022/04/21 03:34:16;;;;;;;;;;;18.40;45.30;;;;;;4947265;28;19962;-76
2022/04/21 03:36:47;;;;;;;;;;;18.30;45.10;;;;;;4949264;28;20313;-77
2022/04/21 03:39:17;;;;;;;;;;;18.20;44.80;;;;;;4943210;28;19925;-75
2022/04/21 03:41:43;;;;;;;;;;;18.30;45.50;;;;;;4948502;28;20375;-73
2022/04/21 03:44:11;;;;;;;;;;;18.30;45.00;;;;;;4940563;29;19915;-74
2022/04/21 03:46:38;;;;;;;;;;;18.30;44.90;;;;;;4936993;29;19915;-74
2022/04/21 03:49:07;;;;;;;;;;;18.20;45.10;;;;;;4939483;28;19953;-74
2022/04/21 03:51:33;;;;;;;;;;;18.30;44.90;;;;;;4940934;28;19922;-74
2022/04/21 03:53:58;;;;;;;;;;;18.20;45.00;;;;;;4947718;28;19922;-74
2022/04/21 03:56:24;;;;;;;;;;;18.10;45.10;;;;;;4946944;29;20437;-74
2022/04/21 03:58:49;;;;;;;;;;;18.10;45.60;;;;;;4939246;28;19976;-75
2022/04/21 04:01:15;;;;;;;;;;;18.20;45.20;;;;;;4941260;29;19914;-75
2022/04/21 04:03:41;;;;;;;;;;;18.20;45.40;;;;;;4940627;29;19910;-76
2022/04/21 04:10:51;;;;;;;;;;;18.20;46.30;;;;;;4948392;28;20009;-74
2022/04/21 04:11:39;;;;;;;;;;;18.50;45.60;;;;;;4946860;28;19921;-74
2022/04/21 04:14:07;;;;;;;;;;;18.20;46.30;;;;;;4946763;28;20024;-74
2022/04/21 04:16:37;;;;;;;;;;;18.20;46.50;;;;;;4944468;28;20377;-74
2022/04/21 04:19:05;;;;;;;;;;;18.20;46.90;;;;;;4971772;28;20368;-74
2022/04/21 04:21:36;;;;;;;;;;;18.20;47.20;;;;;;4956817;28;20316;-75
2022/04/21 04:24:02;;;;;;;;;;;18.30;47.30;;;;;;4947976;28;19953;-74
2022/04/21 04:26:28;;;;;;;;;;;18.20;47.30;;;;;;4948368;28;20005;-74
2022/04/21 04:28:54;;;;;;;;;;;18.20;47.10;;;;;;4945700;29;19915;-74
2022/04/21 04:31:19;;;;;;;;;;;18.10;47.40;;;;;;4946315;28;19919;-74
2022/04/21 04:33:45;;;;;;;;;;;18.20;47.20;;;;;;4941159;28;19919;-74
2022/04/21 04:36:11;;;;;;;;;;;18.30;46.60;;;;;;4946207;29;19919;-74
2022/04/21 04:38:37;;;;;;;;;;;18.50;46.00;;;;;;4966803;28;19910;-76
2022/04/21 04:42:16;;;;;;;;;;;18.30;45.60;;;;;;4947693;28;19949;-76
2022/04/21 04:43:48;;;;;;;;;;;18.40;44.50;;;;;;4947382;29;19915;-75
2022/04/21 04:48:58;;;;;;;;;;;18.10;47.40;;;;;;4948881;29;19936;-77
2022/04/21 04:51:23;;;;;;;;;;;17.70;40.30;;;;;;4948037;28;20441;-77
2022/04/21 04:53:49;;;;;;;;;;;17.40;40.00;;;;;;4947511;28;19918;-77
2022/04/21 04:56:15;;;;;;;;;;;17.20;40.00;;;;;;4947680;29;20358;-78
2022/04/21 04:58:40;;;;;;;;;;;17.10;40.20;;;;;;4963583;28;19972;-75
2022/04/21 05:01:06;;;;;;;;;;;17.00;39.80;;;;;;4951471;29;20340;-76
2022/04/21 05:03:32;;;;;;;;;;;17.00;39.60;;;;;;4944950;29;19914;-75
2022/04/21 05:05:57;;;;;;;;;;;16.90;39.30;;;;;;4951781;28;19961;-75
2022/04/21 05:08:23;;;;;;;;;;;16.90;39.20;;;;;;4951521;29;19945;-75
2022/04/21 05:10:48;;;;;;;;;;;16.90;39.20;;;;;;4951577;29;19918;-76
2022/04/21 05:13:14;;;;;;;;;;;16.90;39.00;;;;;;4951588;29;20017;-75
2022/04/21 05:15:39;;;;;;;;;;;16.90;38.70;;;;;;4949954;28;20036;-75
2022/04/21 05:18:05;;;;;;;;;;;17.10;38.60;;;;;;4960601;28;19915;-75
2022/04/21 05:20:31;;;;;;;;;;;17.20;38.40;;;;;;4947393;28;19914;-76
2022/04/21 05:23:02;;;;;;;;;;;17.40;38.20;;;;;;4987836;28;20298;-75
2022/04/21 05:25:31;;;;;;;;;;;17.60;37.70;;;;;;4948850;28;19921;-75
2022/04/21 05:27:57;;;;;;;;;;;17.70;37.70;;;;;;4958073;28;19919;-75
2022/04/21 05:33:09;;;;;;;;;;;18.00;37.30;;;;;;4965818;28;19929;-75
2022/04/21 05:35:35;;;;;;;;;;;18.20;37.00;;;;;;4968793;28;19914;-76
2022/04/21 05:38:01;;;;;;;;;;;18.40;36.80;;;;;;4962330;28;19917;-76
2022/04/21 05:40:27;;;;;;;;;;;18.70;36.40;;;;;;4994986;28;19921;-76
2022/04/21 05:42:54;;;;;;;;;;;19.00;36.10;;;;;;4942282;29;19914;-76
2022/04/21 05:45:20;;;;;;;;;;;19.30;35.50;;;;;;4931847;29;19915;-76
2022/04/21 05:47:46;;;;;;;;;;;19.40;35.10;;;;;;4932284;29;20002;-76
2022/04/21 05:50:12;;;;;;;;;;;19.70;34.80;;;;;;4931750;29;20596;-76
2022/04/21 05:52:38;;;;;;;;;;;19.80;34.10;;;;;;4931911;29;20318;-75
2022/04/21 05:55:04;;;;;;;;;;;19.90;34.00;;;;;;4940570;28;20016;-75
2022/04/21 05:57:29;;;;;;;;;;;20.10;33.70;;;;;;4970158;28;19915;-74
2022/04/21 05:59:55;;;;;;;;;;;20.40;33.40;;;;;;4960581;28;20286;-75
2022/04/21 06:02:20;;;;;;;;;;;20.60;32.90;;;;;;4952720;28;19915;-75
2022/04/21 06:04:46;;;;;;;;;;;20.80;32.80;;;;;;4950596;29;20327;-75
2022/04/21 06:07:11;;;;;;;;;;;21.10;32.50;;;;;;4950958;29;20419;-75
2022/04/21 06:09:37;;;;;;;;;;;21.40;32.20;;;;;;4950675;28;19911;-76
2022/04/21 06:12:03;;;;;;;;;;;21.60;32.00;;;;;;4949731;29;19917;-75
2022/04/21 06:14:29;;;;;;;;;;;21.80;31.70;;;;;;4951168;28;19924;-76
2022/04/21 06:16:54;;;;;;;;;;;22.10;31.50;;;;;;4951167;29;20356;-76
2022/04/21 06:19:20;;;;;;;;;;;22.30;31.30;;;;;;4949629;29;19915;-76
2022/04/21 06:21:45;;;;;;;;;;;22.30;31.30;;;;;;4950851;28;19956;-76
2022/04/21 06:24:10;;;;;;;;;;;22.50;31.20;;;;;;4950624;29;19984;-76
2022/04/21 06:26:36;;;;;;;;;;;22.70;31.20;;;;;;4950615;29;19918;-75
2022/04/21 06:29:02;;;;;;;;;;;22.70;31.40;;;;;;4950374;29;19942;-76
2022/04/21 06:31:28;;;;;;;;;;;23.00;31.00;;;;;;4950509;29;19961;-75
2022/04/21 06:33:53;;;;;;;;;;;23.30;30.50;;;;;;4950589;29;20396;-76
2022/04/21 06:36:19;;;;;;;;;;;23.50;30.80;;;;;;4950455;29;20437;-75
2022/04/21 06:38:44;;;;;;;;;;;23.50;30.60;;;;;;4950425;29;19974;-75
2022/04/21 06:41:11;;;;;;;;;;;23.70;30.60;;;;;;4950344;29;19963;-75
2022/04/21 06:49:05;;;;;;;;;;;24.20;29.70;;;;;;4949898;29;19984;-76
2022/04/21 06:51:31;;;;;;;;;;;24.40;29.70;;;;;;4950131;29;20362;-75
2022/04/21 06:53:56;;;;;;;;;;;24.50;29.70;;;;;;4950197;29;19918;-76
2022/04/21 06:56:22;;;;;;;;;;;24.80;29.20;;;;;;4949306;29;19910;-76
2022/04/21 06:58:47;;;;;;;;;;;25.10;29.00;;;;;;4949421;28;19917;-76
2022/04/21 07:01:13;;;;;;;;;;;25.10;28.90;;;;;;4950094;29;19914;-78
2022/04/21 07:03:38;;;;;;;;;;;25.30;28.90;;;;;;4950085;29;20297;-76
2022/04/21 07:06:04;;;;;;;;;;;25.50;28.80;;;;;;4950084;29;20417;-76
2022/04/21 07:08:29;;;;;;;;;;;25.90;28.40;;;;;;4949841;29;19994;-76
2022/04/21 07:10:55;;;;;;;;;;;26.00;28.50;;;;;;4949660;29;19980;-76
2022/04/21 07:13:21;;;;;;;;;;;26.10;28.30;;;;;;4950092;29;19925;-76
2022/04/21 07:15:46;;;;;;;;;;;25.90;28.40;;;;;;4950181;29;19914;-77
2022/04/21 07:18:13;;;;;;;;;;;26.00;28.50;;;;;;4949756;29;19956;-76
2022/04/21 07:20:38;;;;;;;;;;;26.20;28.50;;;;;;4948942;28;19914;-76
2022/04/21 07:23:04;;;;;;;;;;;26.30;28.40;;;;;;4949597;29;20251;-76
2022/04/21 07:25:29;;;;;;;;;;;26.30;28.10;;;;;;4950340;29;19918;-79
2022/04/21 07:27:55;;;;;;;;;;;26.40;28.40;;;;;;4949460;29;19911;-80
2022/04/21 07:30:20;;;;;;;;;;;26.60;28.30;;;;;;4950454;28;19933;-77
2022/04/21 07:32:46;;;;;;;;;;;26.60;28.30;;;;;;4949809;29;19918;-77
2022/04/21 07:35:12;;;;;;;;;;;26.50;28.50;;;;;;4949979;29;20329;-76
2022/04/21 07:37:37;;;;;;;;;;;26.70;28.50;;;;;;4949788;29;20001;-77
2022/04/21 07:40:06;;;;;;;;;;;26.50;28.40;;;;;;4949355;29;19914;-78
2022/04/21 07:42:32;;;;;;;;;;;26.70;28.10;;;;;;4949942;29;19965;-78
2022/04/21 07:44:58;;;;;;;;;;;26.90;28.10;;;;;;4949821;29;19992;-77
2022/04/21 07:47:24;;;;;;;;;;;26.90;28.10;;;;;;4949824;29;20002;-76
2022/04/21 07:49:49;;;;;;;;;;;27.20;28.10;;;;;;4949544;29;20001;-78
2022/04/21 07:55:18;;;;;;;;;;;27.60;27.50;;;;;;4957322;28;20051;-77
2022/04/21 07:57:44;;;;;;;;;;;27.50;27.30;;;;;;4949689;28;19915;-77
2022/04/21 08:00:10;;;;;;;;;;;27.70;27.10;;;;;;4949481;29;19918;-77
2022/04/21 08:02:40;;;;;;;;;;;27.90;26.80;;;;;;4947959;29;20278;-78
2022/04/21 08:05:06;;;;;;;;;;;28.10;26.60;;;;;;4949794;28;19914;-77
2022/04/21 08:07:31;;;;;;;;;;;28.20;26.30;;;;;;4949434;29;19914;-77
2022/04/21 08:09:58;;;;;;;;;;;28.40;25.80;;;;;;4948092;29;20492;-77
2022/04/21 08:12:24;;;;;;;;;;;28.60;25.60;;;;;;4949508;28;19956;-78
2022/04/21 08:14:51;;;;;;;;;;;28.80;25.30;;;;;;4949184;29;19948;-77
2022/04/21 08:17:16;;;;;;;;;;;29.00;25.50;;;;;;4949499;29;20389;-78
2022/04/21 08:19:42;;;;;;;;;;;29.30;24.70;;;;;;4949034;29;19911;-78
2022/04/21 08:22:07;;;;;;;;;;;29.60;24.70;;;;;;4949195;29;20301;-78
2022/04/21 08:32:52;;;;;;;;;;;29.80;24.40;;;;;;4950531;29;20484;-77
2022/04/21 08:35:19;;;;;;;;;;;30.00;24.40;;;;;;4952037;29;19930;-77
2022/04/21 08:37:45;;;;;;;;;;;30.30;24.20;;;;;;4967600;28;19913;-77
2022/04/21 08:40:11;;;;;;;;;;;30.50;23.80;;;;;;4969248;28;20432;-77
2022/04/21 08:42:38;;;;;;;;;;;30.60;23.60;;;;;;4950649;29;19990;-77
2022/04/21 08:45:03;;;;;;;;;;;30.90;23.20;;;;;;4951644;29;19911;-78
2022/04/21 08:47:29;;;;;;;;;;;30.70;23.30;;;;;;4955736;28;20290;-78
2022/04/21 08:49:56;;;;;;;;;;;30.90;22.50;;;;;;4978734;28;19917;-78
2022/04/21 08:52:23;;;;;;;;;;;31.00;22.80;;;;;;5026008;28;19970;-78
2022/04/21 08:54:48;;;;;;;;;;;30.70;22.90;;;;;;5052863;28;19950;-77
2022/04/21 08:57:14;;;;;;;;;;;31.00;22.90;;;;;;4965091;28;19919;-78
2022/04/21 08:59:39;;;;;;;;;;;31.10;22.60;;;;;;4951504;29;19910;-78
2022/04/21 09:02:05;;;;;;;;;;;31.30;22.20;;;;;;4951491;29;19914;-77
2022/04/21 09:04:30;;;;;;;;;;;31.10;22.40;;;;;;4951454;29;19921;-77
2022/04/21 09:06:56;;;;;;;;;;;31.40;22.20;;;;;;4951507;28;20401;-78
2022/04/21 09:09:22;;;;;;;;;;;31.60;22.30;;;;;;4934832;29;20005;-78
2022/04/21 09:11:51;;;;;;;;;;;31.50;22.00;;;;;;4961307;28;20025;-77
2022/04/21 09:14:17;;;;;;;;;;;31.70;22.00;;;;;;4970138;28;19995;-78
2022/04/21 09:16:43;;;;;;;;;;;31.80;22.20;;;;;;4953913;28;20370;-77
2022/04/21 09:19:08;;;;;;;;;;;31.90;21.90;;;;;;4949627;28;19918;-79
2022/04/21 09:21:37;;;;;;;;;;;31.80;21.90;;;;;;4949421;29;19916;-77
2022/04/21 09:24:23;;;;;;;;;;;32.00;22.20;;;;;;4949673;29;19915;-77
2022/04/21 09:26:49;;;;;;;;;;;32.00;21.90;;;;;;4949327;28;19964;-78
2022/04/21 09:29:29;;;;;;;;;;;31.80;21.40;;;;;;4949074;28;19946;-78
2022/04/21 09:31:56;;;;;;;;;;;31.90;22.00;;;;;;4949463;28;19910;-78
2022/04/21 09:34:22;;;;;;;;;;;32.20;21.90;;;;;;4949385;29;19915;-78
2022/04/21 09:36:47;;;;;;;;;;;32.30;21.50;;;;;;4950984;29;20429;-78
2022/04/21 09:39:15;;;;;;;;;;;32.20;21.40;;;;;;4949630;29;20013;-76
2022/04/21 09:41:43;;;;;;;;;;;32.20;21.30;;;;;;5006587;28;19912;-78
2022/04/21 09:46:07;;;;;;;;;;;32.20;21.40;;;;;;5050580;28;19943;-78
2022/04/21 09:46:57;;;;;;;;;;;32.20;21.60;;;;;;5052254;28;19917;-77
2022/04/21 09:49:36;;;;;;;;;;;32.40;21.00;;;;;;5051855;28;19913;-78
2022/04/21 09:52:02;;;;;;;;;;;32.40;21.70;;;;;;4942705;28;19922;-77
2022/04/21 09:54:28;;;;;;;;;;;32.40;21.30;;;;;;4931556;29;20097;-77
2022/04/21 09:56:55;;;;;;;;;;;32.40;21.40;;;;;;4932097;29;19915;-78
2022/04/21 09:59:21;;;;;;;;;;;32.70;21.30;;;;;;4931399;29;19911;-77
2022/04/21 10:01:46;;;;;;;;;;;32.40;20.90;;;;;;4931642;29;20390;-78
2022/04/21 10:04:12;;;;;;;;;;;32.30;21.10;;;;;;4931710;29;19921;-76
2022/04/21 10:06:41;;;;;;;;;;;32.20;21.50;;;;;;4931631;29;20370;-77
2022/04/21 10:09:07;;;;;;;;;;;32.20;21.60;;;;;;4931284;29;19921;-76
2022/04/21 10:11:34;;;;;;;;;;;32.40;21.10;;;;;;4931316;28;19915;-77
2022/04/21 10:13:59;;;;;;;;;;;32.40;21.80;;;;;;4931461;28;19962;-77
2022/04/21 10:16:28;;;;;;;;;;;32.40;20.90;;;;;;4931644;29;19973;-77
2022/04/21 10:18:58;;;;;;;;;;;32.20;21.10;;;;;;4931128;28;19938;-78
2022/04/21 10:21:31;;;;;;;;;;;32.10;20.60;;;;;;4931336;29;19914;-77
2022/04/21 10:23:57;;;;;;;;;;;32.20;21.00;;;;;;4930044;29;19942;-78
2022/04/21 10:26:36;;;;;;;;;;;32.30;21.20;;;;;;4930137;29;19922;-78
2022/04/21 10:29:15;;;;;;;;;;;32.50;21.10;;;;;;4931171;29;19917;-77
2022/04/21 10:31:45;;;;;;;;;;;32.70;21.40;;;;;;4957533;28;19917;-76
2022/04/21 10:34:26;;;;;;;;;;;32.20;22.30;;;;;;4954580;28;19950;-74
2022/04/21 10:37:03;;;;;;;;;;;31.90;22.90;;;;;;4975301;28;19939;-78
2022/04/21 10:39:30;;;;;;;;;;;31.80;23.20;;;;;;5051002;28;19944;-76
2022/04/21 10:42:18;;;;;;;;;;;32.00;23.30;;;;;;4953630;28;20777;-77
2022/04/21 10:44:46;;;;;;;;;;;31.80;23.20;;;;;;5008984;28;20292;-77
2022/04/21 10:47:31;;;;;;;;;;;31.50;23.10;;;;;;5051741;28;19908;-77
2022/04/21 10:50:01;;;;;;;;;;;31.50;23.20;;;;;;5051053;28;19913;-76
2022/04/21 10:57:47;;;;;;;;;;;32.10;22.70;;;;;;5024669;28;20328;-77
2022/04/21 11:00:26;;;;;;;;;;;32.10;22.60;;;;;;4949690;28;20200;-77
2022/04/21 11:03:05;;;;;;;;;;;32.00;22.40;;;;;;4990466;28;19942;-77
2022/04/21 11:05:35;;;;;;;;;;;31.30;22.60;;;;;;5008646;28;20375;-76
2022/04/21 11:08:01;;;;;;;;;;;31.30;22.90;;;;;;5008859;28;19913;-76
2022/04/21 11:10:28;;;;;;;;;;;30.70;23.10;;;;;;5050137;28;19916;-76
2022/04/21 11:12:54;;;;;;;;;;;29.20;23.80;;;;;;4998880;28;19980;-75
2022/04/21 11:15:32;;;;;;;;;;;28.10;25.00;;;;;;5032376;28;19913;-77
2022/04/21 11:18:01;;;;;;;;;;;27.20;26.00;;;;;;5050381;28;19913;-78
2022/04/21 11:20:27;;;;;;;;;;;26.60;26.70;;;;;;5050001;28;19921;-77
2022/04/21 11:22:53;;;;;;;;;;;;;;;;;;5000316;28;19975;-76
2022/04/21 11:25:19;;;;;;;;;;;26.20;26.90;;;;;;5007730;28;19937;-76
2022/04/21 11:27:45;;;;;;;;;;;25.80;27.80;;;;;;5002531;28;20360;-76
2022/04/21 11:30:14;;;;;;;;;;;25.60;27.30;;;;;;5025907;28;19909;-76
2022/04/21 11:32:47;;;;;;;;;;;25.50;27.70;;;;;;5014744;28;20364;-76
2022/04/21 11:35:13;;;;;;;;;;;25.40;28.30;;;;;;5027829;28;19920;-76
2022/04/21 11:37:44;;;;;;;;;;;25.30;28.70;;;;;;4964925;28;19915;-77
2022/04/21 11:40:19;;;;;;;;;;;25.30;28.30;;;;;;5000200;28;19920;-77
2022/04/21 11:42:44;;;;;;;;;;;25.00;28.10;;;;;;4990342;28;20285;-76
2022/04/21 11:45:10;;;;;;;;;;;24.90;28.40;;;;;;4948014;29;19969;-77
2022/04/21 11:47:38;;;;;;;;;;;24.80;28.20;;;;;;4989296;28;20330;-77
2022/04/21 11:50:03;;;;;;;;;;;24.60;29.20;;;;;;5020444;28;19908;-78
2022/04/21 11:52:29;;;;;;;;;;;24.50;29.00;;;;;;4995859;28;20356;-77
2022/04/21 11:55:01;;;;;;;;;;;24.50;29.60;;;;;;5049804;28;19913;-77
2022/04/21 11:57:42;;;;;;;;;;;24.50;28.80;;;;;;5036952;28;19917;-76
2022/04/21 12:00:08;;;;;;;;;;;24.40;29.50;;;;;;5023674;28;20655;-77
2022/04/21 12:08:04;;;;;;;;;;;24.10;29.70;;;;;;4987324;28;19960;-76
2022/04/21 12:10:29;;;;;;;;;;;23.90;29.30;;;;;;5024843;28;19917;-76
2022/04/21 12:12:55;;;;;;;;;;;24.00;30.00;;;;;;4988934;28;19922;-76
2022/04/21 12:15:32;;;;;;;;;;;23.90;29.80;;;;;;4952399;28;20005;-76
2022/04/21 12:18:03;;;;;;;;;;;23.90;31.20;;;;;;4951372;29;20412;-76
2022/04/21 12:20:29;;;;;;;;;;;23.90;31.60;;;;;;4950607;29;19957;-76
2022/04/21 12:22:55;;;;;;;;;;;23.90;31.80;;;;;;4952289;28;19958;-76
2022/04/21 12:25:28;;;;;;;;;;;23.80;31.60;;;;;;4962159;28;19914;-76
2022/04/21 12:27:53;;;;;;;;;;;23.90;31.70;;;;;;5034332;28;20352;-76
2022/04/21 12:30:20;;;;;;;;;;;23.80;31.80;;;;;;5034538;28;19928;-76
2022/04/21 12:32:46;;;;;;;;;;;23.40;30.60;;;;;;5034552;28;19917;-76
2022/04/21 12:35:12;;;;;;;;;;;23.30;30.60;;;;;;5018986;28;20002;-76
2022/04/21 12:37:38;;;;;;;;;;;23.20;30.80;;;;;;4993714;28;19958;-77
2022/04/21 12:40:08;;;;;;;;;;;23.10;30.50;;;;;;5025189;28;19971;-76
2022/04/21 12:42:33;;;;;;;;;;;23.20;30.60;;;;;;4994179;28;20364;-76
2022/04/21 12:44:59;;;;;;;;;;;23.00;30.50;;;;;;4953124;28;19997;-76
2022/04/21 12:47:25;;;;;;;;;;;22.90;30.60;;;;;;4994068;28;19919;-76
2022/04/21 12:49:52;;;;;;;;;;;23.00;30.70;;;;;;5015656;28;20372;-76
2022/04/21 12:52:35;;;;;;;;;;;22.90;30.60;;;;;;5003578;28;19918;-76
2022/04/21 12:55:02;;;;;;;;;;;22.90;30.80;;;;;;4968096;28;19917;-76
2022/04/21 12:57:28;;;;;;;;;;;22.90;30.80;;;;;;5012089;28;20004;-76
2022/04/21 12:59:54;;;;;;;;;;;22.80;30.80;;;;;;5053605;28;20383;-76
2022/04/21 13:02:19;;;;;;;;;;;22.80;30.40;;;;;;5053933;28;19963;-76
2022/04/21 13:04:45;;;;;;;;;;;23.00;30.70;;;;;;5030568;28;19950;-76
2022/04/21 13:07:11;;;;;;;;;;;22.90;30.40;;;;;;4994315;28;19911;-76
2022/04/21 13:09:37;;;;;;;;;;;22.90;30.60;;;;;;5047714;28;20307;-76
2022/04/21 13:12:02;;;;;;;;;;;22.70;31.00;;;;;;5053792;28;19909;-76
2022/04/21 13:14:28;;;;;;;;;;;22.60;30.40;;;;;;5047423;28;20428;-76
2022/04/21 13:16:53;;;;;;;;;;;22.60;30.70;;;;;;4994008;28;19918;-76
2022/04/21 13:19:19;;;;;;;;;;;22.80;30.70;;;;;;5033831;28;19915;-76
2022/04/21 13:21:55;;;;;;;;;;;22.80;30.50;;;;;;5053612;28;20315;-76
2022/04/21 13:24:23;;;;;;;;;;;22.70;30.50;;;;;;5053699;28;19909;-76
2022/04/21 13:26:49;;;;;;;;;;;22.70;30.70;;;;;;4971090;28;19921;-76
2022/04/21 13:29:14;;;;;;;;;;;22.60;30.40;;;;;;4948213;28;19923;-76
2022/04/21 13:34:24;;;;;;;;;;;22.50;30.60;;;;;;4951847;28;19964;-76
2022/04/21 13:36:50;;;;;;;;;;;22.50;30.50;;;;;;5011379;28;19909;-76
2022/04/21 13:39:15;;;;;;;;;;;22.50;30.80;;;;;;5052784;28;19916;-76
2022/04/21 13:41:41;;;;;;;;;;;22.50;30.60;;;;;;5051865;28;19909;-76
2022/04/21 13:44:08;;;;;;;;;;;22.50;31.00;;;;;;5003100;28;20484;-76
2022/04/21 13:46:35;;;;;;;;;;;22.40;30.40;;;;;;4994065;28;20162;-75
2022/04/21 13:49:01;;;;;;;;;;;22.50;31.10;;;;;;4959835;28;20334;-75
2022/04/21 13:51:27;;;;;;;;;;;22.50;30.80;;;;;;4951903;28;19919;-76
2022/04/21 13:53:52;;;;;;;;;;;22.60;30.60;;;;;;4943064;29;19915;-76
2022/04/21 13:56:18;;;;;;;;;;;22.60;30.50;;;;;;4932785;29;19915;-77
2022/04/21 13:58:44;;;;;;;;;;;22.30;30.70;;;;;;4989270;28;20050;-77
2022/04/21 14:01:09;;;;;;;;;;;22.30;30.50;;;;;;4954703;28;20120;-76
2022/04/21 14:03:38;;;;;;;;;;;22.30;30.70;;;;;;5018856;28;20362;-76
2022/04/21 14:06:09;;;;;;;;;;;22.30;30.60;;;;;;4962868;28;19917;-77
2022/04/21 14:08:35;;;;;;;;;;;22.20;30.80;;;;;;4970930;28;19911;-75
2022/04/21 14:11:01;;;;;;;;;;;22.40;30.80;;;;;;4983799;28;19912;-76
2022/04/21 14:13:27;;;;;;;;;;;22.20;30.80;;;;;;4963224;28;19961;-76
2022/04/21 14:15:52;;;;;;;;;;;22.20;30.90;;;;;;4993270;28;19957;-76
2022/04/21 14:18:18;;;;;;;;;;;22.20;30.90;;;;;;4973602;28;20077;-76
2022/04/21 14:20:43;;;;;;;;;;;22.20;31.10;;;;;;4993042;28;19909;-75
2022/04/21 14:23:09;;;;;;;;;;;22.10;30.80;;;;;;5016167;28;19918;-76
2022/04/21 14:25:34;;;;;;;;;;;22.30;31.10;;;;;;5002455;28;20354;-77
2022/04/21 14:28:01;;;;;;;;;;;22.20;31.10;;;;;;5013421;28;19913;-75
2022/04/21 14:30:27;;;;;;;;;;;22.10;31.10;;;;;;4999136;28;19976;-76
2022/04/21 14:32:54;;;;;;;;;;;22.10;31.10;;;;;;4951586;28;19953;-76
2022/04/21 14:35:22;;;;;;;;;;;22.00;31.30;;;;;;4995343;28;19926;-76
2022/04/21 14:46:05;;;;;;;;;;;22.20;31.20;;;;;;4937579;29;19921;-75
2022/04/21 14:48:31;;;;;;;;;;;22.00;31.30;;;;;;4964281;28;19911;-77
2022/04/21 14:50:56;;;;;;;;;;;22.10;31.50;;;;;;4948003;29;19958;-76
2022/04/21 14:53:23;;;;;;;;;;;22.10;31.50;;;;;;4931967;29;19919;-75
2022/04/21 14:55:49;;;;;;;;;;;22.00;31.40;;;;;;4966110;28;20380;-76
2022/04/21 14:58:15;;;;;;;;;;;21.90;31.70;;;;;;5008801;28;20277;-75
2022/04/21 15:00:42;;;;;;;;;;;21.80;31.60;;;;;;5049831;28;19916;-75
2022/04/21 15:03:08;;;;;;;;;;;21.90;31.60;;;;;;4972109;28;19917;-76
2022/04/21 15:05:34;;;;;;;;;;;22.00;31.40;;;;;;4958055;28;19919;-76
2022/04/21 15:08:00;;;;;;;;;;;21.80;31.40;;;;;;4980638;28;20337;-75
2022/04/21 15:10:25;;;;;;;;;;;21.70;31.40;;;;;;4946172;28;19921;-75
2022/04/21 15:12:51;;;;;;;;;;;21.70;31.60;;;;;;4991538;28;20407;-76
2022/04/21 15:15:16;;;;;;;;;;;21.70;31.80;;;;;;5031759;28;20003;-76
2022/04/21 15:17:42;;;;;;;;;;;21.90;31.90;;;;;;5051511;28;19913;-76